Time;durP1;ratioP1;P1;durP2;ratioP2;P2;SDS_P1;SDS_P2;PMS_P1;PMS_P2;Temp;Humidity;BMP_temperature;BMP_pressure;BME280_temperature;BME280_humidity;BME280_pressure;Samples;Min_cycle;Max_cycle;Signal;HPM_P1;HPM_P2
2024/01/20 00:02:16;;;;;;;32.17;15.27;;;-1.50;99.90;;;;;;4987360;28;20026;-74
2024/01/20 00:04:41;;;;;;;32.92;15.73;;;-1.50;99.90;;;;;;4986894;28;20092;-72
2024/01/20 00:07:07;;;;;;;30.95;14.05;;;-1.50;99.90;;;;;;4987941;28;20105;-73
2024/01/20 00:09:32;;;;;;;31.13;15.23;;;-1.50;99.90;;;;;;4985515;28;20034;-73
2024/01/20 00:11:58;;;;;;;32.15;14.52;;;-1.60;99.90;;;;;;4987798;28;20840;-73
2024/01/20 00:14:23;;;;;;;27.33;13.38;;;-1.60;99.90;;;;;;4988394;28;20134;-72
2024/01/20 00:16:49;;;;;;;30.95;14.15;;;-1.60;99.90;;;;;;4989637;28;20081;-72
2024/01/20 00:19:15;;;;;;;28.17;14.43;;;-1.60;99.90;;;;;;4985450;28;20019;-73
2024/01/20 00:21:40;;;;;;;34.65;14.70;;;-1.60;99.90;;;;;;4986031;28;20030;-73
2024/01/20 00:24:07;;;;;;;32.45;14.30;;;-1.60;99.90;;;;;;4987115;28;20584;-72
2024/01/20 00:26:33;;;;;;;31.23;14.20;;;-1.60;99.90;;;;;;4988360;28;20834;-75
2024/01/20 00:28:58;;;;;;;26.75;13.15;;;-1.60;99.90;;;;;;4986788;28;20112;-72
2024/01/20 00:31:24;;;;;;;29.55;14.48;;;-1.70;99.90;;;;;;4987039;28;20038;-73
2024/01/20 00:33:49;;;;;;;28.27;13.45;;;-1.70;99.90;;;;;;4988765;28;20030;-74
2024/01/20 00:36:15;;;;;;;29.48;13.88;;;-1.80;99.90;;;;;;4988717;28;20512;-73
2024/01/20 00:38:42;;;;;;;31.25;14.82;;;-1.80;99.90;;;;;;4987961;28;20050;-75
2024/01/20 00:41:08;;;;;;;27.27;13.00;;;-1.80;99.90;;;;;;4987533;28;20022;-73
2024/01/20 00:43:34;;;;;;;30.95;14.52;;;-1.80;99.90;;;;;;4986724;28;20026;-73
2024/01/20 00:46:00;;;;;;;29.27;13.63;;;-1.80;99.90;;;;;;4987172;28;20042;-73
2024/01/20 00:48:26;;;;;;;31.90;15.00;;;-1.90;99.90;;;;;;4988098;28;20075;-76
2024/01/20 00:50:52;;;;;;;27.20;13.40;;;-1.90;99.90;;;;;;4990368;28;20105;-73
2024/01/20 00:53:17;;;;;;;28.95;15.43;;;-2.00;99.90;;;;;;4986881;28;20095;-74
2024/01/20 00:55:43;;;;;;;33.35;15.02;;;-2.10;99.90;;;;;;4983469;28;20518;-72
2024/01/20 00:58:09;;;;;;;30.90;15.18;;;-2.10;99.90;;;;;;4989536;28;20030;-72
2024/01/20 01:00:35;;;;;;;29.67;15.35;;;-2.10;99.90;;;;;;4988919;28;20027;-72
2024/01/20 01:03:01;;;;;;;35.20;15.60;;;-2.10;99.90;;;;;;4989260;28;20129;-72
2024/01/20 01:05:26;;;;;;;32.85;14.00;;;-2.00;99.90;;;;;;4986657;28;21209;-73
2024/01/20 01:07:52;;;;;;;33.13;15.13;;;-2.00;99.90;;;;;;4984854;28;20042;-73
2024/01/20 01:10:18;;;;;;;31.77;15.18;;;-2.00;99.90;;;;;;4988116;28;20049;-72
2024/01/20 01:12:43;;;;;;;36.92;16.58;;;-1.90;99.90;;;;;;4986048;28;20031;-72
2024/01/20 01:15:09;;;;;;;36.80;16.55;;;-1.90;99.90;;;;;;4987575;28;20050;-71
2024/01/20 01:17:35;;;;;;;37.40;15.85;;;-1.90;99.90;;;;;;4986160;28;20085;-72
2024/01/20 01:20:00;;;;;;;38.92;17.30;;;-1.90;99.90;;;;;;4986268;28;20081;-72
2024/01/20 01:22:26;;;;;;;39.00;17.77;;;-1.90;99.90;;;;;;4989209;28;20679;-72
2024/01/20 01:24:52;;;;;;;37.22;16.88;;;-1.80;99.90;;;;;;4986499;28;20394;-72
2024/01/20 01:27:17;;;;;;;39.17;18.38;;;-1.80;99.90;;;;;;4985194;28;20030;-72
2024/01/20 01:29:43;;;;;;;37.03;17.08;;;-1.80;99.90;;;;;;4988577;28;20093;-73
2024/01/20 01:32:08;;;;;;;43.20;18.55;;;-1.90;99.90;;;;;;4985824;28;20983;-72
2024/01/20 01:34:35;;;;;;;34.67;17.90;;;-1.90;99.90;;;;;;4986740;28;20073;-72
2024/01/20 01:37:01;;;;;;;38.50;18.42;;;-1.90;99.90;;;;;;4985491;28;20545;-72
2024/01/20 01:39:26;;;;;;;33.80;15.95;;;-1.80;99.90;;;;;;4986043;28;20027;-72
2024/01/20 01:41:52;;;;;;;29.08;14.25;;;-1.90;99.90;;;;;;4990022;28;20038;-72
2024/01/20 01:44:18;;;;;;;29.63;13.57;;;-1.90;99.90;;;;;;4983991;28;20072;-72
2024/01/20 01:46:43;;;;;;;31.85;13.88;;;-1.90;99.90;;;;;;4984723;28;20481;-72
2024/01/20 01:49:09;;;;;;;32.85;15.77;;;-2.00;99.90;;;;;;4986035;28;20066;-73
2024/01/20 01:51:35;;;;;;;30.38;14.30;;;-2.10;99.90;;;;;;4988387;28;20113;-71
2024/01/20 01:54:02;;;;;;;33.67;15.57;;;-2.10;99.90;;;;;;4985750;28;20033;-72
2024/01/20 01:56:29;;;;;;;29.75;15.00;;;-2.10;99.90;;;;;;4985173;28;20033;-73
2024/01/20 01:58:56;;;;;;;32.15;15.43;;;-2.10;99.90;;;;;;4989738;28;20027;-72
2024/01/20 02:01:21;;;;;;;34.45;15.57;;;-2.20;99.90;;;;;;4990626;28;20042;-72
2024/01/20 02:03:47;;;;;;;35.05;16.30;;;-2.20;99.90;;;;;;4992377;28;20038;-71
2024/01/20 02:06:13;;;;;;;35.80;15.95;;;-2.30;99.90;;;;;;4988174;28;20035;-72
2024/01/20 02:08:40;;;;;;;36.25;16.25;;;-2.30;99.90;;;;;;4968036;28;20058;-71
2024/01/20 02:11:07;;;;;;;36.60;16.60;;;-2.40;99.90;;;;;;4997415;28;20042;-73
2024/01/20 02:13:33;;;;;;;31.85;15.13;;;-2.40;99.90;;;;;;4992391;28;20022;-72
2024/01/20 02:16:01;;;;;;;36.47;16.38;;;-2.40;99.90;;;;;;4990643;28;20027;-73
2024/01/20 02:18:27;;;;;;;35.58;16.23;;;-2.40;99.90;;;;;;4991496;28;20057;-72
2024/01/20 02:20:53;;;;;;;42.08;18.73;;;-2.40;99.90;;;;;;4991308;28;20053;-71
2024/01/20 02:23:18;;;;;;;41.25;17.55;;;-2.40;99.90;;;;;;4990078;28;20117;-72
2024/01/20 02:25:46;;;;;;;43.33;17.65;;;-2.50;99.90;;;;;;4991272;28;20550;-71
2024/01/20 02:28:11;;;;;;;42.05;18.90;;;-2.50;99.90;;;;;;5002104;28;20022;-72
2024/01/20 02:30:37;;;;;;;41.10;18.73;;;-2.50;99.90;;;;;;4989403;28;20386;-71
2024/01/20 02:33:03;;;;;;;43.15;19.02;;;-2.50;99.90;;;;;;4990388;28;20519;-71
2024/01/20 02:35:28;;;;;;;41.05;18.77;;;-2.60;99.90;;;;;;4987610;28;20077;-71
2024/01/20 02:37:54;;;;;;;48.75;18.20;;;-2.60;99.90;;;;;;4991380;28;20046;-71
2024/01/20 02:40:20;;;;;;;39.17;17.23;;;-2.60;99.90;;;;;;4990290;28;20030;-73
2024/01/20 02:42:45;;;;;;;36.47;16.55;;;-2.70;99.90;;;;;;4992265;28;20034;-72
2024/01/20 02:45:11;;;;;;;32.88;15.77;;;-2.70;99.90;;;;;;4990365;28;20145;-73
2024/01/20 02:47:37;;;;;;;38.10;17.23;;;-2.60;99.90;;;;;;4991128;28;20389;-71
2024/01/20 02:50:03;;;;;;;33.90;15.43;;;-2.70;99.90;;;;;;4990635;28;20041;-71
2024/01/20 02:52:29;;;;;;;41.80;15.93;;;-2.70;99.90;;;;;;4988463;28;20022;-71
2024/01/20 02:54:54;;;;;;;33.90;15.18;;;-2.60;99.90;;;;;;4990266;28;20164;-72
2024/01/20 02:57:20;;;;;;;32.80;14.80;;;-2.60;99.90;;;;;;4991848;28;20375;-71
2024/01/20 02:59:45;;;;;;;36.65;15.40;;;-2.70;99.90;;;;;;4990887;28;20137;-71
2024/01/20 03:02:11;;;;;;;32.30;15.27;;;-2.60;99.90;;;;;;4991759;28;20026;-72
2024/01/20 03:04:37;;;;;;;32.58;15.20;;;-2.60;99.90;;;;;;4990094;28;20034;-71
2024/01/20 03:07:02;;;;;;;36.05;16.48;;;-2.60;99.90;;;;;;4989309;28;20505;-71
2024/01/20 03:09:28;;;;;;;32.58;15.98;;;-2.60;99.90;;;;;;4990605;28;20098;-72
2024/01/20 03:11:53;;;;;;;35.50;16.40;;;-2.60;99.90;;;;;;4988451;28;20068;-71
2024/01/20 03:14:19;;;;;;;40.47;16.98;;;-2.50;99.90;;;;;;4989184;28;20029;-71
2024/01/20 03:16:45;;;;;;;34.22;15.43;;;-2.60;99.90;;;;;;4989469;28;20149;-72
2024/01/20 03:19:10;;;;;;;39.50;16.98;;;-2.60;99.90;;;;;;4991820;28;20022;-71
2024/01/20 03:21:36;;;;;;;35.80;16.15;;;-2.60;99.90;;;;;;4990382;28;20026;-71
2024/01/20 03:24:02;;;;;;;34.10;15.27;;;-2.60;99.90;;;;;;4989288;28;20035;-71
2024/01/20 03:26:27;;;;;;;34.03;15.57;;;-2.60;99.90;;;;;;4989847;28;20520;-70
2024/01/20 03:28:53;;;;;;;38.92;16.33;;;-2.60;99.90;;;;;;4989704;28;20150;-71
2024/01/20 03:31:19;;;;;;;34.13;16.60;;;-2.60;99.90;;;;;;4986616;28;20049;-70
2024/01/20 03:33:44;;;;;;;43.28;16.65;;;-2.60;99.90;;;;;;4989652;28;20117;-71
2024/01/20 03:36:11;;;;;;;38.17;16.77;;;-2.70;99.90;;;;;;4991655;28;20466;-71
2024/01/20 03:38:37;;;;;;;39.40;17.95;;;-2.70;99.90;;;;;;4990022;28;20022;-71
2024/01/20 03:41:02;;;;;;;40.63;17.63;;;-2.80;99.90;;;;;;4990808;28;20046;-71
2024/01/20 03:43:28;;;;;;;37.28;17.15;;;-2.70;99.90;;;;;;4991189;28;20490;-71
2024/01/20 03:45:53;;;;;;;34.47;16.30;;;-2.70;99.90;;;;;;4988233;28;20027;-71
2024/01/20 03:48:19;;;;;;;39.40;17.02;;;-2.70;99.90;;;;;;4987039;28;20477;-71
2024/01/20 03:50:45;;;;;;;47.92;18.08;;;-2.70;99.90;;;;;;4992438;28;20153;-71
2024/01/20 03:53:11;;;;;;;42.47;16.85;;;-2.70;99.90;;;;;;4991063;28;20040;-71
2024/01/20 03:55:36;;;;;;;37.75;15.73;;;-2.80;99.90;;;;;;4986843;28;20058;-71
2024/01/20 03:58:02;;;;;;;34.47;14.93;;;-2.80;99.90;;;;;;4992305;28;20041;-71
2024/01/20 04:00:28;;;;;;;31.55;14.48;;;-2.80;99.90;;;;;;4988517;28;20022;-72
2024/01/20 04:02:54;;;;;;;30.67;14.60;;;-2.90;99.90;;;;;;4989179;28;20040;-71
2024/01/20 04:05:19;;;;;;;32.38;15.45;;;-2.90;99.90;;;;;;4990798;28;20055;-71
2024/01/20 04:07:45;;;;;;;33.55;14.35;;;-2.90;99.90;;;;;;4991505;28;20034;-71
2024/01/20 04:10:11;;;;;;;35.00;15.70;;;-2.90;99.90;;;;;;4987489;28;20093;-71
2024/01/20 04:12:39;;;;;;;32.45;15.05;;;-2.90;99.90;;;;;;4990277;28;20478;-71
2024/01/20 04:15:05;;;;;;;31.13;14.77;;;-3.00;99.90;;;;;;4990800;28;20038;-70
2024/01/20 04:17:31;;;;;;;30.45;14.07;;;-3.00;99.90;;;;;;4988151;28;20042;-70
2024/01/20 04:19:56;;;;;;;31.40;14.52;;;-3.00;99.90;;;;;;4990406;28;20517;-71
2024/01/20 04:22:22;;;;;;;31.40;13.77;;;-3.00;99.90;;;;;;4989564;28;20544;-71
2024/01/20 04:24:48;;;;;;;34.53;14.43;;;-3.10;99.90;;;;;;4989716;28;20114;-71
2024/01/20 04:27:13;;;;;;;33.03;14.48;;;-3.10;99.90;;;;;;4988939;28;20073;-72
2024/01/20 04:29:39;;;;;;;31.55;14.05;;;-3.10;99.90;;;;;;4990424;28;20577;-71
2024/01/20 04:32:05;;;;;;;31.20;14.50;;;-3.10;99.90;;;;;;4991184;28;20042;-72
2024/01/20 04:34:30;;;;;;;30.42;14.10;;;-3.10;99.90;;;;;;4990128;28;20029;-71
2024/01/20 04:36:56;;;;;;;36.35;15.48;;;-3.20;99.90;;;;;;4989492;28;20503;-71
2024/01/20 04:39:21;;;;;;;39.20;14.95;;;-3.20;99.90;;;;;;4989287;28;20026;-71
2024/01/20 04:41:47;;;;;;;33.25;14.55;;;-3.20;99.90;;;;;;4990560;28;20177;-71
2024/01/20 04:44:13;;;;;;;33.60;14.82;;;-3.10;99.90;;;;;;4989747;28;20030;-71
2024/01/20 04:46:38;;;;;;;32.00;14.85;;;-3.20;99.90;;;;;;4989311;28;20027;-71
2024/01/20 04:49:04;;;;;;;33.70;15.35;;;-3.20;99.90;;;;;;4990558;28;20067;-71
2024/01/20 04:51:30;;;;;;;34.05;15.95;;;-3.30;99.90;;;;;;4990452;28;20027;-71
2024/01/20 04:53:55;;;;;;;40.08;16.45;;;-3.20;99.90;;;;;;4989194;28;20505;-71
2024/01/20 04:56:24;;;;;;;40.92;16.73;;;-3.20;99.90;;;;;;4987683;28;20053;-71
2024/01/20 04:58:55;;;;;;;36.88;17.25;;;-3.20;99.90;;;;;;4988487;28;20035;-71
2024/01/20 05:01:21;;;;;;;35.35;15.00;;;-3.20;99.90;;;;;;4988253;28;20061;-71
2024/01/20 05:03:46;;;;;;;34.20;14.88;;;-3.20;99.90;;;;;;4991193;28;20046;-71
2024/01/20 05:06:12;;;;;;;32.45;13.73;;;-3.20;99.90;;;;;;4990140;28;20027;-71
2024/01/20 05:08:38;;;;;;;31.92;14.75;;;-3.20;99.90;;;;;;4990069;28;20034;-71
2024/01/20 05:11:03;;;;;;;36.30;14.93;;;-3.20;99.90;;;;;;4992090;28;20026;-70
2024/01/20 05:13:30;;;;;;;29.67;13.48;;;-3.20;99.90;;;;;;4990449;28;20034;-70
2024/01/20 05:15:55;;;;;;;29.08;14.18;;;-3.20;99.90;;;;;;4988609;28;20046;-71
2024/01/20 05:18:21;;;;;;;32.35;13.63;;;-3.20;99.90;;;;;;4991947;28;20018;-71
2024/01/20 05:20:47;;;;;;;28.17;12.68;;;-3.20;99.90;;;;;;4988115;28;20035;-71
2024/01/20 05:23:13;;;;;;;32.40;13.25;;;-3.30;99.90;;;;;;4988580;28;20045;-71
2024/01/20 05:25:39;;;;;;;28.95;13.57;;;-3.30;99.90;;;;;;4989253;28;20030;-71
2024/01/20 05:28:04;;;;;;;30.67;13.57;;;-3.30;99.90;;;;;;4988729;28;20466;-71
2024/01/20 05:30:30;;;;;;;26.58;12.38;;;-3.30;99.90;;;;;;4984036;28;20053;-71
2024/01/20 05:32:56;;;;;;;29.95;13.77;;;-3.30;99.90;;;;;;4994667;28;20039;-71
2024/01/20 05:35:22;;;;;;;29.88;13.10;;;-3.40;99.90;;;;;;4990503;28;20030;-71
2024/01/20 05:37:47;;;;;;;27.17;12.70;;;-3.30;99.90;;;;;;4994479;28;20496;-71
2024/01/20 05:40:13;;;;;;;30.52;13.80;;;-3.30;99.90;;;;;;4991856;28;20026;-72
2024/01/20 05:42:39;;;;;;;30.58;13.18;;;-3.30;99.90;;;;;;4991381;28;20029;-71
2024/01/20 05:45:08;;;;;;;32.60;12.95;;;-3.30;99.90;;;;;;4993448;28;20026;-71
2024/01/20 05:47:37;;;;;;;32.80;13.95;;;-3.30;99.90;;;;;;4990669;28;20568;-71
2024/01/20 05:50:04;;;;;;;32.15;13.63;;;-3.40;99.90;;;;;;4991852;28;20043;-71
2024/01/20 05:52:29;;;;;;;30.48;13.43;;;-3.40;99.90;;;;;;4988573;28;20034;-70
2024/01/20 05:54:55;;;;;;;36.97;13.40;;;-3.40;99.90;;;;;;4992648;28;20076;-71
2024/01/20 05:57:20;;;;;;;32.15;13.63;;;-3.40;99.90;;;;;;4990849;28;20025;-71
2024/01/20 05:59:46;;;;;;;35.65;12.73;;;-3.40;99.90;;;;;;4993341;28;20089;-71
2024/01/20 06:02:11;;;;;;;30.92;13.68;;;-3.50;99.90;;;;;;4991513;28;20058;-71
2024/01/20 06:04:37;;;;;;;33.72;14.82;;;-3.50;99.90;;;;;;4992987;28;20030;-71
2024/01/20 06:07:03;;;;;;;29.67;13.10;;;-3.50;99.90;;;;;;4990257;28;20084;-71
2024/01/20 06:09:29;;;;;;;31.27;12.70;;;-3.50;99.90;;;;;;4989011;28;20026;-71
2024/01/20 06:11:54;;;;;;;28.05;12.73;;;-3.50;99.90;;;;;;4990722;28;20065;-71
2024/01/20 06:14:20;;;;;;;29.05;11.40;;;-3.50;99.90;;;;;;4992169;28;20038;-71
2024/01/20 06:16:45;;;;;;;27.23;12.13;;;-3.50;99.90;;;;;;4985522;28;20038;-72
2024/01/20 06:19:11;;;;;;;28.60;12.57;;;-3.50;99.90;;;;;;4989390;28;20513;-72
2024/01/20 06:21:36;;;;;;;31.13;13.15;;;-3.50;99.90;;;;;;4991226;28;20026;-73
2024/01/20 06:24:02;;;;;;;28.38;12.35;;;-3.50;99.90;;;;;;4993354;28;20136;-72
2024/01/20 06:26:28;;;;;;;33.22;13.05;;;-3.60;99.90;;;;;;4989128;28;20058;-72
2024/01/20 06:28:54;;;;;;;31.90;13.02;;;-3.60;99.90;;;;;;4990429;28;20046;-71
2024/01/20 06:31:27;;;;;;;25.80;11.75;;;-3.60;99.90;;;;;;4992327;28;20033;-71
2024/01/20 06:33:53;;;;;;;31.02;13.13;;;-3.60;99.90;;;;;;4988812;28;20133;-70
2024/01/20 06:36:24;;;;;;;31.33;14.07;;;-3.80;99.90;;;;;;4990000;28;20031;-70
2024/01/20 06:38:51;;;;;;;30.77;13.02;;;-3.80;99.90;;;;;;4991658;28;20031;-70
2024/01/20 06:41:16;;;;;;;34.97;14.40;;;-3.80;99.90;;;;;;4990563;28;20129;-70
2024/01/20 06:43:42;;;;;;;37.00;14.93;;;-3.80;99.90;;;;;;4988612;28;20117;-70
2024/01/20 06:46:07;;;;;;;36.97;15.13;;;-3.80;99.90;;;;;;4990455;28;20034;-71
2024/01/20 06:48:34;;;;;;;38.58;15.35;;;-3.80;99.90;;;;;;4992189;28;20049;-71
2024/01/20 06:51:03;;;;;;;31.88;14.05;;;-3.70;99.90;;;;;;4990682;28;20041;-71
2024/01/20 06:53:30;;;;;;;33.95;13.02;;;-3.70;99.90;;;;;;4992167;28;20109;-70
2024/01/20 06:55:56;;;;;;;33.35;15.23;;;-3.70;99.90;;;;;;4993151;28;20030;-71
2024/01/20 06:58:22;;;;;;;36.90;15.88;;;-3.70;99.90;;;;;;4987553;28;20552;-71
2024/01/20 07:00:48;;;;;;;33.13;13.75;;;-3.70;99.90;;;;;;4991391;28;20109;-71
2024/01/20 07:03:14;;;;;;;34.00;14.60;;;-3.70;99.90;;;;;;4988056;28;20105;-71
2024/01/20 07:05:40;;;;;;;32.70;13.80;;;-3.70;99.90;;;;;;4987889;28;20034;-71
2024/01/20 07:08:06;;;;;;;34.70;14.25;;;-3.70;99.90;;;;;;4989289;28;20410;-71
2024/01/20 07:10:32;;;;;;;40.75;15.77;;;-3.70;99.90;;;;;;4992586;28;20038;-72
2024/01/20 07:12:58;;;;;;;33.85;14.20;;;-3.70;99.90;;;;;;4986739;28;20548;-71
2024/01/20 07:15:23;;;;;;;28.02;13.00;;;-3.80;99.90;;;;;;4992037;28;20053;-72
2024/01/20 07:17:49;;;;;;;31.13;13.73;;;-3.70;99.90;;;;;;4991672;28;20639;-71
2024/01/20 07:20:15;;;;;;;30.27;12.27;;;-3.80;99.90;;;;;;4991092;28;20053;-71
2024/01/20 07:22:41;;;;;;;34.08;13.50;;;-3.80;99.90;;;;;;4993160;28;20042;-71
2024/01/20 07:25:10;;;;;;;30.38;12.50;;;-3.80;99.90;;;;;;4991001;28;20113;-71
2024/01/20 07:27:36;;;;;;;32.42;13.70;;;-3.80;99.90;;;;;;4990653;28;20065;-71
2024/01/20 07:30:01;;;;;;;33.63;14.13;;;-3.80;99.90;;;;;;4991856;28;20030;-71
2024/01/20 07:32:27;;;;;;;33.55;14.40;;;-3.80;99.90;;;;;;4993229;28;20061;-71
2024/01/20 07:34:53;;;;;;;31.35;14.02;;;-3.80;99.90;;;;;;4991252;28;20022;-71
2024/01/20 07:37:18;;;;;;;31.95;13.63;;;-3.80;99.90;;;;;;4989074;28;20037;-71
2024/01/20 07:39:44;;;;;;;32.95;13.32;;;-3.80;99.90;;;;;;4991682;28;20033;-71
2024/01/20 07:42:10;;;;;;;35.92;14.57;;;-3.80;99.90;;;;;;4988399;28;20060;-71
2024/01/20 07:44:36;;;;;;;32.55;14.13;;;-3.80;99.90;;;;;;4989394;28;20030;-72
2024/01/20 07:47:02;;;;;;;31.63;14.38;;;-3.70;99.90;;;;;;5004119;28;20173;-71
2024/01/20 07:49:27;;;;;;;30.17;14.35;;;-3.70;99.90;;;;;;4989484;28;20046;-70
2024/01/20 07:51:53;;;;;;;32.28;14.43;;;-3.80;99.90;;;;;;4988836;28;20378;-70
2024/01/20 07:54:19;;;;;;;33.50;15.88;;;-3.80;99.90;;;;;;4985592;28;20390;-70
2024/01/20 07:56:44;;;;;;;35.30;14.50;;;-3.80;99.90;;;;;;4986108;28;20026;-71
2024/01/20 07:59:10;;;;;;;33.58;14.55;;;-3.90;99.90;;;;;;4987280;28;20027;-70
2024/01/20 08:01:35;;;;;;;34.50;14.75;;;-3.90;99.90;;;;;;4987753;28;20057;-71
2024/01/20 08:04:01;;;;;;;36.53;16.67;;;-3.80;99.90;;;;;;4992120;28;20046;-71
2024/01/20 08:06:27;;;;;;;34.75;15.18;;;-3.80;99.90;;;;;;4987028;28;20065;-71
2024/01/20 08:08:52;;;;;;;32.78;14.95;;;-3.80;99.90;;;;;;4989844;28;20038;-71
2024/01/20 08:11:18;;;;;;;41.40;15.95;;;-3.70;99.90;;;;;;4989509;28;20035;-72
2024/01/20 08:13:44;;;;;;;43.05;17.13;;;-3.70;99.90;;;;;;4988917;28;20097;-71
2024/01/20 08:16:09;;;;;;;46.90;19.13;;;-3.60;99.90;;;;;;4989401;28;20497;-71
2024/01/20 08:18:35;;;;;;;44.85;16.38;;;-3.50;99.90;;;;;;4989245;28;20030;-70
2024/01/20 08:21:07;;;;;;;43.88;18.98;;;-3.40;99.90;;;;;;4990712;28;20061;-71
2024/01/20 08:23:33;;;;;;;44.10;19.08;;;-3.20;99.90;;;;;;4988071;28;20101;-71
2024/01/20 08:25:59;;;;;;;48.28;18.92;;;-3.20;99.90;;;;;;4991144;28;20027;-71
2024/01/20 08:28:24;;;;;;;37.13;16.45;;;-3.10;99.90;;;;;;4988761;28;20026;-72
2024/01/20 08:30:50;;;;;;;38.25;17.10;;;-3.10;99.90;;;;;;4986327;28;20059;-72
2024/01/20 08:33:16;;;;;;;43.42;17.27;;;-3.00;99.90;;;;;;4987026;28;20030;-71
2024/01/20 08:35:41;;;;;;;36.78;15.88;;;-2.90;99.90;;;;;;4988785;28;20026;-71
2024/01/20 08:38:07;;;;;;;38.67;16.75;;;-2.90;99.90;;;;;;4989460;28;20031;-70
2024/01/20 08:40:33;;;;;;;41.88;16.92;;;-2.80;99.90;;;;;;4989874;28;20110;-72
2024/01/20 08:42:58;;;;;;;41.58;16.95;;;-2.70;99.90;;;;;;4985125;28;20026;-70
2024/01/20 08:45:24;;;;;;;36.42;16.73;;;-2.70;99.90;;;;;;4989464;28;20770;-70
2024/01/20 08:47:49;;;;;;;37.38;16.48;;;-2.60;99.90;;;;;;4986501;28;20145;-69
2024/01/20 08:50:15;;;;;;;35.70;16.73;;;-2.60;99.90;;;;;;4990750;28;20405;-70
2024/01/20 08:52:41;;;;;;;36.25;16.58;;;-2.60;99.90;;;;;;4988518;28;20101;-70
2024/01/20 08:55:07;;;;;;;41.28;17.48;;;-2.60;99.90;;;;;;4986927;28;20022;-70
2024/01/20 08:57:33;;;;;;;38.88;16.85;;;-2.50;99.90;;;;;;4987087;28;20496;-70
2024/01/20 08:59:59;;;;;;;37.03;17.35;;;-2.50;99.90;;;;;;4987887;28;20038;-70
2024/01/20 09:02:25;;;;;;;36.95;16.60;;;-2.50;99.90;;;;;;4986480;28;20035;-70
2024/01/20 09:04:50;;;;;;;37.05;16.42;;;-2.60;99.90;;;;;;4987993;28;20117;-70
2024/01/20 09:07:16;;;;;;;40.15;17.45;;;-2.60;99.90;;;;;;4989773;28;20019;-70
2024/01/20 09:09:42;;;;;;;41.60;17.30;;;-2.60;99.90;;;;;;4986253;28;20061;-70
2024/01/20 09:12:07;;;;;;;38.15;17.13;;;-2.60;99.90;;;;;;4987420;28;20643;-70
2024/01/20 09:14:33;;;;;;;44.47;18.42;;;-2.60;99.90;;;;;;4986539;28;20038;-70
2024/01/20 09:16:58;;;;;;;35.45;15.93;;;-2.50;99.90;;;;;;4988106;28;20053;-72
2024/01/20 09:19:24;;;;;;;35.45;16.13;;;-2.50;99.90;;;;;;4989370;28;20028;-72
2024/01/20 09:21:50;;;;;;;35.67;16.30;;;-2.50;99.90;;;;;;4988960;28;20144;-71
2024/01/20 09:24:15;;;;;;;38.00;16.25;;;-2.40;99.90;;;;;;4988993;28;20521;-73
2024/01/20 09:26:41;;;;;;;41.10;16.08;;;-2.40;99.90;;;;;;4985584;28;20394;-69
2024/01/20 09:29:07;;;;;;;38.30;16.50;;;-2.30;99.90;;;;;;4989333;28;20034;-71
2024/01/20 09:31:32;;;;;;;41.65;17.45;;;-2.30;99.90;;;;;;4989614;28;20038;-70
2024/01/20 09:33:58;;;;;;;40.92;17.25;;;-2.20;99.90;;;;;;4989244;28;20023;-72
2024/01/20 09:36:24;;;;;;;35.92;16.48;;;-2.20;99.90;;;;;;4987130;28;20398;-72
2024/01/20 09:38:49;;;;;;;35.92;16.63;;;-2.20;99.90;;;;;;4989037;28;20026;-71
2024/01/20 09:41:15;;;;;;;39.15;18.48;;;-2.20;99.90;;;;;;4988781;28;20170;-72
2024/01/20 09:43:42;;;;;;;41.15;17.85;;;-2.30;99.90;;;;;;4987415;28;20069;-72
2024/01/20 09:46:09;;;;;;;41.33;19.52;;;-2.20;99.90;;;;;;4986739;28;20057;-71
2024/01/20 09:48:34;;;;;;;41.53;18.88;;;-2.20;99.90;;;;;;4988473;28;20023;-71
2024/01/20 09:51:00;;;;;;;42.00;16.92;;;-2.30;99.90;;;;;;4987020;28;20026;-71
2024/01/20 09:53:26;;;;;;;41.35;18.33;;;-2.20;99.90;;;;;;4987624;28;20120;-71
2024/01/20 09:55:52;;;;;;;39.72;17.88;;;-2.20;99.90;;;;;;4986807;28;20023;-71
2024/01/20 09:58:18;;;;;;;41.05;17.90;;;-2.20;99.90;;;;;;4987658;28;20046;-71
2024/01/20 10:00:44;;;;;;;39.17;17.05;;;-2.10;99.90;;;;;;4989685;28;20576;-70
2024/01/20 10:03:11;;;;;;;44.10;19.20;;;-2.10;99.90;;;;;;4985748;28;20104;-71
2024/01/20 10:05:38;;;;;;;40.50;17.58;;;-2.00;99.90;;;;;;4987900;28;20035;-71
2024/01/20 10:08:07;;;;;;;39.63;17.48;;;-1.90;99.90;;;;;;4988046;28;20027;-71
2024/01/20 10:10:33;;;;;;;41.80;16.42;;;-1.90;99.90;;;;;;4987139;28;20085;-71
2024/01/20 10:13:00;;;;;;;36.42;16.10;;;-1.90;99.90;;;;;;4988902;28;20454;-72
2024/01/20 10:15:28;;;;;;;38.08;16.52;;;-1.90;99.90;;;;;;4986612;28;20030;-70
2024/01/20 10:17:55;;;;;;;38.22;17.55;;;-2.00;99.90;;;;;;4991608;28;20038;-70
2024/01/20 10:20:24;;;;;;;39.67;16.92;;;-2.00;99.90;;;;;;4990040;28;20026;-70
2024/01/20 10:22:50;;;;;;;41.75;18.85;;;-2.10;99.90;;;;;;4994120;28;20030;-70
2024/01/20 10:25:20;;;;;;;41.97;18.48;;;-2.00;99.90;;;;;;4991204;28;20026;-71
2024/01/20 10:27:47;;;;;;;39.13;17.23;;;-2.00;99.90;;;;;;4992265;28;20478;-70
2024/01/20 10:30:17;;;;;;;39.03;18.00;;;-2.00;99.90;;;;;;4989390;28;20389;-70
2024/01/20 10:32:44;;;;;;;39.05;17.85;;;-1.90;99.90;;;;;;4991430;28;20429;-70
2024/01/20 10:35:10;;;;;;;41.72;19.60;;;-2.00;99.90;;;;;;4990023;28;20065;-70
2024/01/20 10:37:49;;;;;;;40.65;17.83;;;-2.00;99.90;;;;;;4992642;28;20343;-70
2024/01/20 10:40:15;;;;;;;41.42;18.13;;;-1.90;99.90;;;;;;4989368;28;20097;-70
2024/01/20 10:42:59;;;;;;;44.17;19.63;;;-1.90;99.90;;;;;;4988384;28;20543;-70
2024/01/20 10:45:27;;;;;;;43.28;18.75;;;-2.00;99.90;;;;;;5002905;28;20121;-71
2024/01/20 10:47:53;;;;;;;44.50;18.15;;;-1.80;99.90;;;;;;4991317;28;20034;-71
2024/01/20 10:50:21;;;;;;;43.28;18.08;;;-1.80;99.90;;;;;;4992673;28;20469;-70
2024/01/20 10:52:47;;;;;;;41.92;18.23;;;-1.70;99.90;;;;;;4991762;28;20058;-70
2024/01/20 10:55:15;;;;;;;39.60;17.35;;;-1.80;99.90;;;;;;4991031;28;20034;-70
2024/01/20 10:57:41;;;;;;;37.92;17.23;;;-1.90;99.90;;;;;;4991420;28;20030;-71
2024/01/20 11:00:10;;;;;;;37.38;16.85;;;-1.80;99.90;;;;;;4989720;28;20029;-70
2024/01/20 11:02:36;;;;;;;45.88;18.50;;;-1.80;99.90;;;;;;4989169;28;20022;-71
2024/01/20 11:05:03;;;;;;;38.25;16.63;;;-1.70;99.90;;;;;;4990440;28;20057;-71
2024/01/20 11:07:29;;;;;;;46.67;18.58;;;-1.70;99.90;;;;;;4987148;28;20108;-71
2024/01/20 11:09:59;;;;;;;40.33;18.00;;;-1.60;99.90;;;;;;4992822;28;20034;-70
2024/01/20 11:12:27;;;;;;;39.78;18.10;;;-1.50;99.90;;;;;;4990491;28;20034;-71
2024/01/20 11:14:54;;;;;;;40.47;17.30;;;-1.40;99.90;;;;;;4989690;28;20382;-72
2024/01/20 11:17:21;;;;;;;40.67;18.25;;;-1.40;99.90;;;;;;5005332;28;20104;-70
2024/01/20 11:19:46;;;;;;;43.45;19.25;;;-1.30;99.90;;;;;;4990338;28;20033;-71
2024/01/20 11:22:35;;;;;;;43.17;17.88;;;-1.30;99.90;;;;;;4992043;28;20038;-71
2024/01/20 11:25:07;;;;;;;41.05;19.08;;;-1.20;99.90;;;;;;4988156;28;20207;-70
2024/01/20 11:27:46;;;;;;;38.40;17.55;;;-1.20;99.90;;;;;;4990490;28;20022;-71
2024/01/20 11:30:12;;;;;;;42.10;17.00;;;-1.30;99.90;;;;;;4991817;28;20026;-70
2024/01/20 11:32:38;;;;;;;44.22;19.92;;;-1.20;99.90;;;;;;4990665;28;20026;-71
2024/01/20 11:35:05;;;;;;;40.05;18.75;;;-1.20;99.90;;;;;;4989986;28;20030;-70
2024/01/20 11:37:31;;;;;;;38.30;18.60;;;-1.20;99.90;;;;;;4988646;28;21403;-71
2024/01/20 11:40:04;;;;;;;40.42;17.88;;;-1.30;99.90;;;;;;5005502;28;20018;-71
2024/01/20 11:42:32;;;;;;;44.50;18.45;;;-1.30;99.90;;;;;;4989113;28;20018;-71
2024/01/20 11:44:57;;;;;;;40.03;17.88;;;-1.30;99.90;;;;;;4988211;28;20044;-71
2024/01/20 11:47:23;;;;;;;41.10;18.35;;;-1.20;99.90;;;;;;4986874;28;20034;-71
2024/01/20 11:49:49;;;;;;;41.60;18.33;;;-1.20;99.90;;;;;;4990895;28;20085;-71
2024/01/20 11:52:14;;;;;;;40.75;18.27;;;-1.10;99.90;;;;;;4987197;28;20030;-72
2024/01/20 11:54:40;;;;;;;38.95;18.20;;;-1.00;99.90;;;;;;4990454;28;20175;-71
2024/01/20 11:57:06;;;;;;;44.58;19.52;;;-1.00;99.90;;;;;;4989197;28;20030;-69
2024/01/20 11:59:31;;;;;;;39.03;18.58;;;-1.00;99.90;;;;;;4987886;28;20023;-72
2024/01/20 12:01:57;;;;;;;54.35;20.02;;;-1.00;99.90;;;;;;4989124;28;20027;-72
2024/01/20 12:04:22;;;;;;;43.38;19.05;;;-0.90;99.90;;;;;;4987917;28;20042;-69
2024/01/20 12:06:48;;;;;;;46.90;20.00;;;-0.90;99.90;;;;;;4987834;28;20112;-70
2024/01/20 12:09:15;;;;;;;55.28;20.33;;;-0.80;99.90;;;;;;4987848;28;20425;-69
2024/01/20 12:11:41;;;;;;;42.60;18.58;;;-0.80;99.90;;;;;;4985261;28;20093;-72
2024/01/20 12:14:08;;;;;;;47.55;19.67;;;-0.80;99.90;;;;;;4988097;28;20383;-72
2024/01/20 12:16:34;;;;;;;40.38;18.83;;;-0.70;99.90;;;;;;4987520;28;20034;-70
2024/01/20 12:19:00;;;;;;;45.88;18.05;;;-0.70;99.90;;;;;;4987984;28;20861;-70
2024/01/20 12:21:27;;;;;;;42.15;19.55;;;-0.60;99.90;;;;;;4989975;28;20057;-70
2024/01/20 12:23:53;;;;;;;44.15;19.88;;;-0.50;99.90;;;;;;4987573;28;20061;-69